Time;durP1;ratioP1;P1;durP2;ratioP2;P2;SDS_P1;SDS_P2;PMS_P1;PMS_P2;Temp;Humidity;BMP_temperature;BMP_pressure;BME280_temperature;BME280_humidity;BME280_pressure;Samples;Min_cycle;Max_cycle;Signal;HPM_P1;HPM_P2
2024/03/27 00:00:01;;;;;;;2.28;2.08;;;12.10;72.80;;;;;;2095083;28;20147;-71
2024/03/27 00:01:10;;;;;;;4.30;2.40;;;12.10;73.00;;;;;;2093779;28;20021;-71
2024/03/27 00:02:10;;;;;;;3.78;2.33;;;12.10;72.80;;;;;;2094225;28;20017;-72
2024/03/27 00:03:11;;;;;;;3.42;3.05;;;12.10;72.90;;;;;;2094921;28;20028;-71
2024/03/27 00:04:11;;;;;;;3.38;2.30;;;12.10;72.90;;;;;;2092554;28;20182;-71
2024/03/27 00:05:12;;;;;;;4.07;2.50;;;12.10;73.00;;;;;;2093223;28;20025;-71
2024/03/27 00:06:13;;;;;;;3.92;2.22;;;12.10;72.70;;;;;;2093947;28;20045;-72
2024/03/27 00:07:14;;;;;;;3.22;2.50;;;12.00;72.70;;;;;;2095091;28;20074;-71
2024/03/27 00:08:14;;;;;;;2.92;2.13;;;12.00;72.60;;;;;;2095099;28;20110;-72
2024/03/27 00:09:15;;;;;;;5.53;2.70;;;12.00;72.60;;;;;;2094539;28;20673;-71
2024/03/27 00:10:16;;;;;;;4.68;2.55;;;12.00;72.60;;;;;;2095932;28;20539;-69
2024/03/27 00:11:17;;;;;;;4.03;2.10;;;12.00;73.50;;;;;;2094369;28;20169;-71
2024/03/27 00:12:17;;;;;;;3.92;2.42;;;12.00;72.70;;;;;;2094386;28;20063;-68
2024/03/27 00:13:18;;;;;;;4.50;2.47;;;12.00;72.60;;;;;;2092776;28;20029;-71
2024/03/27 00:14:19;;;;;;;4.20;2.83;;;12.00;72.70;;;;;;2094402;28;20029;-71
2024/03/27 00:15:19;;;;;;;3.40;2.30;;;12.00;72.80;;;;;;2095370;28;20036;-71
2024/03/27 00:16:20;;;;;;;2.75;2.22;;;12.00;72.80;;;;;;2094955;28;20029;-71
2024/03/27 00:17:21;;;;;;;3.05;2.45;;;12.00;73.20;;;;;;2094535;28;20107;-71
2024/03/27 00:18:22;;;;;;;3.22;2.25;;;12.00;72.80;;;;;;2096001;28;20021;-71
2024/03/27 00:19:22;;;;;;;2.60;2.40;;;12.00;72.70;;;;;;2093659;28;20044;-70
2024/03/27 00:20:23;;;;;;;4.13;2.28;;;12.00;72.90;;;;;;2094344;28;20397;-69
2024/03/27 00:21:23;;;;;;;3.55;2.63;;;12.00;72.60;;;;;;2094426;28;20021;-71
2024/03/27 00:22:25;;;;;;;3.72;2.50;;;12.00;72.80;;;;;;2094017;28;20028;-71
2024/03/27 00:23:26;;;;;;;3.10;2.33;;;12.00;72.80;;;;;;2094501;28;20067;-71
2024/03/27 00:24:29;;;;;;;2.67;2.22;;;12.00;72.90;;;;;;2095276;28;20032;-72
2024/03/27 00:25:29;;;;;;;2.92;2.33;;;12.00;72.80;;;;;;2094013;28;20025;-68
2024/03/27 00:26:31;;;;;;;3.35;2.10;;;12.00;72.80;;;;;;2094384;28;20472;-71
2024/03/27 00:27:32;;;;;;;2.17;2.03;;;12.00;72.80;;;;;;2093207;28;20028;-72
2024/03/27 00:28:33;;;;;;;3.67;2.42;;;12.00;72.90;;;;;;2091577;28;20485;-72
2024/03/27 00:29:33;;;;;;;4.78;2.60;;;12.00;72.80;;;;;;2093613;28;20413;-71
2024/03/27 00:30:34;;;;;;;4.03;2.22;;;12.00;72.90;;;;;;2095559;28;20107;-71
2024/03/27 00:31:34;;;;;;;2.72;2.17;;;12.00;73.10;;;;;;2094444;28;20028;-71
2024/03/27 00:32:36;;;;;;;3.10;2.33;;;12.00;72.90;;;;;;2093807;28;20056;-72
2024/03/27 00:33:36;;;;;;;4.15;2.50;;;12.00;72.90;;;;;;2095645;28;20052;-71
2024/03/27 00:34:37;;;;;;;4.97;2.47;;;11.90;72.80;;;;;;2094423;28;20028;-72
2024/03/27 00:35:38;;;;;;;2.60;2.40;;;12.00;73.00;;;;;;2092678;28;20033;-71
2024/03/27 00:36:38;;;;;;;3.88;2.67;;;11.90;73.20;;;;;;2093455;28;20036;-69
2024/03/27 00:37:39;;;;;;;3.67;2.38;;;11.90;73.20;;;;;;2094804;28;20504;-71
2024/03/27 00:38:39;;;;;;;4.40;2.03;;;11.90;73.00;;;;;;2092889;28;20019;-72
2024/03/27 00:39:40;;;;;;;3.10;2.10;;;11.90;72.80;;;;;;2093755;28;20017;-71
2024/03/27 00:40:41;;;;;;;4.28;2.53;;;11.90;73.00;;;;;;2093766;28;20646;-71
2024/03/27 00:41:42;;;;;;;2.78;2.40;;;11.90;72.80;;;;;;2094620;28;20021;-71
2024/03/27 00:42:44;;;;;;;2.92;2.15;;;11.90;72.80;;;;;;2095117;28;20027;-71
2024/03/27 00:43:45;;;;;;;3.97;2.42;;;11.90;72.90;;;;;;2095218;28;20029;-71
2024/03/27 00:44:45;;;;;;;3.13;2.17;;;11.90;73.20;;;;;;2096128;28;20079;-71
2024/03/27 00:45:46;;;;;;;3.05;2.40;;;11.90;73.00;;;;;;2093770;28;20047;-72
2024/03/27 00:46:46;;;;;;;4.00;2.60;;;11.90;73.00;;;;;;2093722;28;20431;-71
2024/03/27 00:47:47;;;;;;;2.83;2.40;;;11.90;73.20;;;;;;2093838;28;20099;-71
2024/03/27 00:48:47;;;;;;;2.88;2.22;;;11.90;73.00;;;;;;2094247;28;20051;-70
2024/03/27 00:49:48;;;;;;;3.65;2.50;;;11.90;73.00;;;;;;2094193;28;20457;-71
2024/03/27 00:50:48;;;;;;;3.20;2.65;;;11.90;73.10;;;;;;2094093;28;20088;-70
2024/03/27 00:51:49;;;;;;;3.83;2.42;;;11.90;73.00;;;;;;2095967;28;20030;-71
2024/03/27 00:52:49;;;;;;;3.28;2.20;;;11.90;73.20;;;;;;2093489;28;20048;-69
2024/03/27 00:53:50;;;;;;;2.85;2.20;;;11.90;73.20;;;;;;2093240;28;20056;-71
2024/03/27 00:54:50;;;;;;;2.75;2.42;;;11.90;73.20;;;;;;2095261;28;20032;-70
2024/03/27 00:55:59;;;;;;;3.38;2.83;;;11.90;73.10;;;;;;2094770;28;20052;-72
2024/03/27 00:56:59;;;;;;;5.13;2.30;;;11.90;73.00;;;;;;2095343;28;20046;-75
2024/03/27 00:58:00;;;;;;;5.22;2.55;;;11.90;73.30;;;;;;2095742;28;20020;-71
2024/03/27 00:59:00;;;;;;;2.60;2.40;;;11.90;73.00;;;;;;2094782;28;20021;-71
2024/03/27 01:00:02;;;;;;;2.65;2.28;;;11.90;73.20;;;;;;2093374;28;20056;-71
2024/03/27 01:01:03;;;;;;;4.90;2.40;;;11.90;73.10;;;;;;2094682;28;20456;-72
2024/03/27 01:02:05;;;;;;;3.45;2.60;;;11.90;73.00;;;;;;2093379;28;20481;-71
2024/03/27 01:03:06;;;;;;;3.08;2.47;;;11.90;73.10;;;;;;2093925;28;20123;-70
2024/03/27 01:04:06;;;;;;;7.75;2.35;;;11.90;73.20;;;;;;2092776;28;20028;-71
2024/03/27 01:05:07;;;;;;;5.60;2.45;;;11.90;73.40;;;;;;2086715;28;20056;-71
2024/03/27 01:06:09;;;;;;;4.75;2.53;;;12.00;73.60;;;;;;2086695;28;20025;-70
2024/03/27 01:07:09;;;;;;;3.47;2.42;;;11.90;73.50;;;;;;2095886;28;20028;-70
2024/03/27 01:08:11;;;;;;;4.30;2.72;;;11.90;73.50;;;;;;2095359;28;20109;-71
2024/03/27 01:09:11;;;;;;;3.00;2.08;;;11.90;73.90;;;;;;2093424;28;20040;-71
2024/03/27 01:10:12;;;;;;;3.03;2.20;;;11.90;74.40;;;;;;2092608;28;20074;-71
2024/03/27 01:11:12;;;;;;;2.90;2.60;;;11.90;74.30;;;;;;2094529;28;20036;-70
2024/03/27 01:12:13;;;;;;;3.25;2.60;;;11.90;74.50;;;;;;2092802;28;20103;-72
2024/03/27 01:13:17;;;;;;;3.53;2.42;;;11.90;74.90;;;;;;2093130;28;20024;-70
2024/03/27 01:14:18;;;;;;;3.88;2.40;;;11.90;74.90;;;;;;2092999;28;20023;-71
2024/03/27 01:15:20;;;;;;;5.60;2.50;;;11.90;74.40;;;;;;2095395;28;20060;-71
2024/03/27 01:16:24;;;;;;;3.28;2.63;;;11.90;74.50;;;;;;2094192;28;20392;-68
2024/03/27 01:17:24;;;;;;;2.85;2.53;;;11.90;74.80;;;;;;2094095;28;20370;-71
2024/03/27 01:18:25;;;;;;;3.58;2.67;;;11.90;75.00;;;;;;2092492;28;20083;-71
2024/03/27 01:19:25;;;;;;;2.53;2.30;;;11.90;75.10;;;;;;2093023;28;20127;-71
2024/03/27 01:20:27;;;;;;;4.32;2.20;;;11.90;75.00;;;;;;2090795;28;20104;-71
2024/03/27 01:21:28;;;;;;;3.05;2.38;;;11.90;75.20;;;;;;2086963;28;20017;-71
2024/03/27 01:22:28;;;;;;;2.65;2.20;;;11.90;75.50;;;;;;2089440;28;20036;-70
2024/03/27 01:23:29;;;;;;;2.65;2.15;;;11.90;75.90;;;;;;2086234;28;20029;-72
2024/03/27 01:24:29;;;;;;;3.40;2.28;;;11.90;76.20;;;;;;2086067;28;20024;-71
2024/03/27 01:25:30;;;;;;;2.80;2.35;;;11.90;76.50;;;;;;2086630;28;20426;-71
2024/03/27 01:26:30;;;;;;;3.10;2.03;;;11.90;76.70;;;;;;2084598;28;20032;-72
2024/03/27 01:27:31;;;;;;;2.65;1.90;;;11.90;77.10;;;;;;2086174;28;20044;-71
2024/03/27 01:28:31;;;;;;;3.55;2.40;;;11.90;77.60;;;;;;2077800;28;20033;-72
2024/03/27 01:29:32;;;;;;;4.50;2.10;;;11.90;77.80;;;;;;2079055;28;20030;-71
2024/03/27 01:30:33;;;;;;;5.30;2.33;;;11.90;78.10;;;;;;2087142;28;20033;-71
2024/03/27 01:31:33;;;;;;;2.88;2.08;;;11.80;78.20;;;;;;2087125;28;20033;-69
2024/03/27 01:32:34;;;;;;;3.28;2.25;;;11.90;78.30;;;;;;2085793;28;20040;-71
2024/03/27 01:33:35;;;;;;;3.75;2.17;;;11.80;78.40;;;;;;2086042;28;20035;-71
2024/03/27 01:34:35;;;;;;;6.60;2.45;;;11.80;78.60;;;;;;2086908;28;20025;-70
2024/03/27 01:35:36;;;;;;;4.55;2.30;;;11.80;78.60;;;;;;2085767;28;20026;-69
2024/03/27 01:36:36;;;;;;;4.22;2.42;;;11.80;78.60;;;;;;2087561;28;20485;-71
2024/03/27 01:37:37;;;;;;;2.20;2.00;;;11.80;78.70;;;;;;2087035;28;20020;-70
2024/03/27 01:38:38;;;;;;;2.63;1.90;;;11.80;78.80;;;;;;2085402;28;20041;-71
2024/03/27 01:39:38;;;;;;;2.72;2.38;;;11.80;79.20;;;;;;2087056;28;20034;-67
2024/03/27 01:40:39;;;;;;;3.70;1.83;;;11.80;79.30;;;;;;2085460;28;20056;-71
2024/03/27 01:41:40;;;;;;;2.13;1.90;;;11.80;79.40;;;;;;2085940;28;20021;-70
2024/03/27 01:42:40;;;;;;;2.88;2.20;;;11.80;79.40;;;;;;2084714;28;21569;-71
2024/03/27 01:43:41;;;;;;;2.15;1.77;;;11.80;79.40;;;;;;2086338;28;20033;-71
2024/03/27 01:44:42;;;;;;;3.92;2.00;;;11.80;79.50;;;;;;2086850;28;20033;-71
2024/03/27 01:45:42;;;;;;;4.20;2.05;;;11.80;79.70;;;;;;2087921;28;20048;-71
2024/03/27 01:46:46;;;;;;;3.00;2.20;;;11.70;79.90;;;;;;2086902;28;20053;-71
2024/03/27 01:47:47;;;;;;;2.55;2.20;;;11.70;79.90;;;;;;2079612;28;20437;-70
2024/03/27 01:48:48;;;;;;;3.80;1.98;;;11.70;79.80;;;;;;2086289;28;20084;-70
2024/03/27 01:49:48;;;;;;;2.53;2.22;;;11.70;79.80;;;;;;2084866;28;20029;-71
2024/03/27 01:50:49;;;;;;;2.30;2.10;;;11.70;79.70;;;;;;2075487;28;20026;-70
2024/03/27 01:51:50;;;;;;;2.38;2.05;;;11.70;80.00;;;;;;2076716;28;20061;-70
2024/03/27 01:52:51;;;;;;;3.70;1.75;;;11.70;80.30;;;;;;2087083;28;20029;-72
2024/03/27 01:53:52;;;;;;;2.42;1.83;;;11.70;80.50;;;;;;2085312;28;20016;-71
2024/03/27 01:54:53;;;;;;;2.78;1.90;;;11.70;80.50;;;;;;2085836;28;20029;-71
2024/03/27 01:55:53;;;;;;;2.25;2.03;;;11.60;80.40;;;;;;2086207;28;20841;-71
2024/03/27 01:56:55;;;;;;;4.47;2.05;;;11.60;80.40;;;;;;2086739;28;20017;-71
2024/03/27 01:57:56;;;;;;;2.17;1.77;;;11.60;80.40;;;;;;2084902;28;20037;-71
2024/03/27 01:58:57;;;;;;;3.88;2.03;;;11.60;80.40;;;;;;2086778;28;20033;-72
2024/03/27 01:59:58;;;;;;;4.05;2.00;;;11.60;80.40;;;;;;2087151;28;20029;-71
2024/03/27 02:00:59;;;;;;;4.10;2.30;;;11.60;80.60;;;;;;2083830;28;20072;-71
2024/03/27 02:02:00;;;;;;;2.83;1.95;;;11.60;80.80;;;;;;2085803;28;20032;-70
2024/03/27 02:03:00;;;;;;;3.35;2.03;;;11.60;80.80;;;;;;2083730;28;20067;-71
2024/03/27 02:04:02;;;;;;;2.20;2.00;;;11.50;80.70;;;;;;2086113;28;20556;-71
2024/03/27 02:05:03;;;;;;;3.70;2.40;;;11.60;80.80;;;;;;2085829;28;20025;-72
2024/03/27 02:06:06;;;;;;;2.72;2.00;;;11.50;80.80;;;;;;2088302;28;20025;-71
2024/03/27 02:07:06;;;;;;;2.55;2.00;;;11.50;80.90;;;;;;2086253;28;20029;-71
2024/03/27 02:08:07;;;;;;;1.90;1.80;;;11.50;80.90;;;;;;2085839;28;20482;-71
2024/03/27 02:09:08;;;;;;;3.80;2.15;;;11.50;81.00;;;;;;2086537;28;20029;-70
2024/03/27 02:10:08;;;;;;;2.80;2.40;;;11.40;81.00;;;;;;2081993;28;20048;-72
2024/03/27 02:11:09;;;;;;;3.35;2.28;;;11.50;81.20;;;;;;2082211;28;20586;-71
2024/03/27 02:12:10;;;;;;;4.75;1.95;;;11.50;81.60;;;;;;2085709;28;20021;-69
2024/03/27 02:13:10;;;;;;;2.30;2.03;;;11.40;81.80;;;;;;2086655;28;20033;-72
2024/03/27 02:14:14;;;;;;;2.90;2.35;;;11.40;82.00;;;;;;2083709;28;20082;-70
2024/03/27 02:15:15;;;;;;;9.55;2.30;;;11.40;82.10;;;;;;2087261;28;20485;-71
2024/03/27 02:16:15;;;;;;;2.53;1.90;;;11.40;82.10;;;;;;2085970;28;20472;-71
2024/03/27 02:17:16;;;;;;;2.65;2.00;;;11.40;82.10;;;;;;2081652;28;20029;-71
2024/03/27 02:18:16;;;;;;;5.03;2.13;;;11.40;82.20;;;;;;2083695;28;20488;-71
2024/03/27 02:19:17;;;;;;;2.40;2.20;;;11.40;83.20;;;;;;2084664;28;20025;-72
2024/03/27 02:20:17;;;;;;;4.72;1.98;;;11.30;82.50;;;;;;2081543;28;20038;-71
2024/03/27 02:21:18;;;;;;;2.15;1.95;;;11.30;82.50;;;;;;2078129;28;20049;-71
2024/03/27 02:22:19;;;;;;;3.75;2.08;;;11.30;82.60;;;;;;2079453;28;20025;-71
2024/03/27 02:23:24;;;;;;;3.70;2.55;;;11.30;82.80;;;;;;2083690;28;20049;-71
2024/03/27 02:24:44;;;;;;;2.67;2.42;;;11.20;82.80;;;;;;2083587;28;20551;-71
2024/03/27 02:26:10;;;;;;;2.47;2.28;;;11.20;82.90;;;;;;2083905;28;20126;-72
2024/03/27 02:27:11;;;;;;;5.32;2.25;;;11.20;83.50;;;;;;2085869;28;20436;-71
2024/03/27 02:28:12;;;;;;;3.00;2.30;;;11.20;83.40;;;;;;2085371;28;20374;-71
2024/03/27 02:29:13;;;;;;;4.15;2.47;;;11.20;83.60;;;;;;2084447;28;20132;-72
2024/03/27 02:30:13;;;;;;;2.67;2.47;;;11.10;83.70;;;;;;2084662;28;20033;-71
2024/03/27 02:31:14;;;;;;;2.78;2.35;;;11.10;83.70;;;;;;2083940;28;20033;-71
2024/03/27 02:32:14;;;;;;;2.45;2.22;;;11.10;83.70;;;;;;2085032;28;20049;-71
2024/03/27 02:33:15;;;;;;;4.43;2.20;;;11.10;83.90;;;;;;2084976;28;20070;-70
2024/03/27 02:34:15;;;;;;;5.75;2.35;;;11.10;84.00;;;;;;2085173;28;20026;-71
2024/03/27 02:35:18;;;;;;;2.97;2.50;;;11.10;84.10;;;;;;2086151;28;20080;-68
2024/03/27 02:36:19;;;;;;;4.90;2.53;;;11.00;84.10;;;;;;2085741;28;20104;-73
2024/03/27 02:37:20;;;;;;;2.80;2.53;;;11.10;84.20;;;;;;2084358;28;20032;-71
2024/03/27 02:38:21;;;;;;;4.65;2.50;;;11.00;84.20;;;;;;2086934;28;20033;-71
2024/03/27 02:39:21;;;;;;;2.85;2.53;;;11.00;84.40;;;;;;2086849;28;20025;-72
2024/03/27 02:40:22;;;;;;;3.25;2.60;;;11.00;84.60;;;;;;2085205;28;20078;-71
2024/03/27 02:41:22;;;;;;;4.10;2.55;;;11.00;84.80;;;;;;2087122;28;20083;-71
2024/03/27 02:42:23;;;;;;;3.00;2.35;;;11.00;84.90;;;;;;2086122;28;20028;-71
2024/03/27 02:43:23;;;;;;;4.35;2.50;;;11.00;84.90;;;;;;2085607;28;20029;-70
2024/03/27 02:44:24;;;;;;;3.78;2.63;;;11.00;84.80;;;;;;2086106;28;20083;-72
2024/03/27 02:45:24;;;;;;;5.32;2.78;;;11.00;84.90;;;;;;2084633;28;20032;-72
2024/03/27 02:46:25;;;;;;;3.50;2.35;;;10.90;85.00;;;;;;2086585;28;20067;-71
2024/03/27 02:47:25;;;;;;;4.25;1.70;;;10.90;85.20;;;;;;2086030;28;20137;-71
2024/03/27 02:48:26;;;;;;;2.67;2.30;;;10.90;85.30;;;;;;2084458;28;20028;-70
2024/03/27 02:49:27;;;;;;;3.75;2.30;;;10.90;85.40;;;;;;2085713;28;20039;-72
2024/03/27 02:50:27;;;;;;;2.25;2.00;;;10.90;85.60;;;;;;2087676;28;20072;-71
2024/03/27 02:51:28;;;;;;;4.00;2.30;;;10.90;85.60;;;;;;2078406;28;20109;-72
2024/03/27 02:52:29;;;;;;;2.95;2.47;;;10.90;85.70;;;;;;2078839;28;20045;-72
2024/03/27 02:53:29;;;;;;;2.97;2.63;;;10.90;85.80;;;;;;2088893;28;20094;-70
2024/03/27 02:54:30;;;;;;;5.00;3.28;;;10.90;86.00;;;;;;2088208;28;20075;-71
2024/03/27 02:55:30;;;;;;;3.95;2.90;;;10.90;86.10;;;;;;2086811;28;20119;-72
2024/03/27 02:56:31;;;;;;;3.80;2.50;;;10.90;86.20;;;;;;2086801;28;20493;-72
2024/03/27 02:57:31;;;;;;;3.30;2.38;;;10.80;86.20;;;;;;2086865;28;20037;-71
2024/03/27 02:58:32;;;;;;;3.05;2.80;;;10.80;86.10;;;;;;2087927;28;20104;-72
2024/03/27 02:59:32;;;;;;;4.30;2.88;;;10.80;86.20;;;;;;2085315;28;20467;-72
2024/03/27 03:00:33;;;;;;;3.22;2.67;;;10.80;86.20;;;;;;2087619;28;20026;-71
2024/03/27 03:01:33;;;;;;;5.53;2.25;;;10.80;86.10;;;;;;2087808;28;20031;-70
2024/03/27 03:02:34;;;;;;;5.00;3.25;;;10.80;86.00;;;;;;2085779;28;20053;-71
2024/03/27 03:03:35;;;;;;;4.30;2.85;;;10.80;85.80;;;;;;2087544;28;20029;-72
2024/03/27 03:04:35;;;;;;;4.03;2.90;;;10.80;86.00;;;;;;2087230;28;20033;-71
2024/03/27 03:05:36;;;;;;;3.17;2.88;;;10.70;86.10;;;;;;2086275;28;20039;-72
2024/03/27 03:06:36;;;;;;;7.70;3.30;;;10.70;86.20;;;;;;2088514;28;20489;-72
2024/03/27 03:07:37;;;;;;;6.05;3.88;;;10.70;86.00;;;;;;2086184;28;20124;-72
2024/03/27 03:08:37;;;;;;;5.05;3.60;;;10.70;85.70;;;;;;2085553;28;20029;-71
2024/03/27 03:09:38;;;;;;;3.45;2.95;;;10.70;85.70;;;;;;2087555;28;20373;-72
2024/03/27 03:10:38;;;;;;;3.75;2.90;;;10.70;85.60;;;;;;2085031;28;20046;-71
2024/03/27 03:11:39;;;;;;;3.40;3.03;;;10.70;85.50;;;;;;2086934;28;20041;-71
2024/03/27 03:12:39;;;;;;;4.60;2.92;;;10.60;85.60;;;;;;2086447;28;20366;-71
2024/03/27 03:13:40;;;;;;;3.85;3.22;;;10.60;85.70;;;;;;2087517;28;20428;-72
2024/03/27 03:14:40;;;;;;;3.78;3.25;;;10.60;85.60;;;;;;2087225;28;20025;-71
2024/03/27 03:15:41;;;;;;;4.35;3.25;;;10.60;85.60;;;;;;2085827;28;20033;-72
2024/03/27 03:16:41;;;;;;;3.95;3.25;;;10.60;85.10;;;;;;2087155;28;20053;-71
2024/03/27 03:17:43;;;;;;;4.60;3.17;;;10.60;84.30;;;;;;2084418;28;20032;-71
2024/03/27 03:18:47;;;;;;;3.10;2.80;;;10.60;84.20;;;;;;2088291;28;20043;-69
2024/03/27 03:19:47;;;;;;;4.93;3.67;;;10.60;84.00;;;;;;2086431;28;20545;-71
2024/03/27 03:20:48;;;;;;;4.43;3.53;;;10.60;84.30;;;;;;2093358;28;20428;-72
2024/03/27 03:21:48;;;;;;;3.85;3.45;;;10.70;83.30;;;;;;2094397;28;20040;-71
2024/03/27 03:22:52;;;;;;;3.65;3.30;;;10.70;83.00;;;;;;2096171;28;20032;-72
2024/03/27 03:23:53;;;;;;;4.35;2.80;;;10.70;83.40;;;;;;2094604;28;20362;-71
2024/03/27 03:24:53;;;;;;;4.03;3.03;;;10.70;83.30;;;;;;2096636;28;20362;-71
2024/03/27 03:25:54;;;;;;;3.35;2.78;;;10.70;83.20;;;;;;2095645;28;20029;-71
2024/03/27 03:26:54;;;;;;;5.53;2.97;;;10.70;82.90;;;;;;2094902;28;20562;-71
2024/03/27 03:27:55;;;;;;;3.70;2.75;;;10.80;83.00;;;;;;2095962;28;20052;-71
2024/03/27 03:28:55;;;;;;;6.10;3.53;;;10.80;82.90;;;;;;2096600;28;20107;-71
2024/03/27 03:29:56;;;;;;;4.43;3.15;;;10.80;82.60;;;;;;2096225;28;20051;-72
2024/03/27 03:31:06;;;;;;;4.53;3.22;;;10.80;82.20;;;;;;2095288;28;20021;-70
2024/03/27 03:32:07;;;;;;;5.28;3.33;;;10.80;81.90;;;;;;2095022;28;20044;-72
2024/03/27 03:33:07;;;;;;;3.72;3.28;;;10.80;81.90;;;;;;2094286;28;20025;-71
2024/03/27 03:34:08;;;;;;;4.07;3.33;;;10.80;81.90;;;;;;2094628;28;20094;-72
2024/03/27 03:35:10;;;;;;;6.47;3.33;;;10.80;81.90;;;;;;2092851;28;20033;-70
2024/03/27 03:36:11;;;;;;;3.63;3.22;;;10.90;81.70;;;;;;2095688;28;20032;-72
2024/03/27 03:37:11;;;;;;;5.15;2.90;;;10.90;81.40;;;;;;2094858;28;20519;-71
2024/03/27 03:38:12;;;;;;;4.32;3.10;;;10.90;81.30;;;;;;2095336;28;20413;-71
2024/03/27 03:39:14;;;;;;;4.35;3.50;;;10.90;81.20;;;;;;2095768;28;20032;-72
2024/03/27 03:40:14;;;;;;;4.18;2.60;;;10.90;80.90;;;;;;2094111;28;20135;-71
2024/03/27 03:41:15;;;;;;;2.60;2.38;;;10.90;80.90;;;;;;2094404;28;20025;-72
2024/03/27 03:42:15;;;;;;;3.30;3.00;;;10.90;81.00;;;;;;2094751;28;20039;-71
2024/03/27 03:43:16;;;;;;;3.38;2.95;;;10.90;81.00;;;;;;2095880;28;20571;-71
2024/03/27 03:44:16;;;;;;;5.93;3.30;;;10.90;81.20;;;;;;2093599;28;20028;-72
2024/03/27 03:45:17;;;;;;;4.55;2.88;;;10.90;81.60;;;;;;2096295;28;20027;-72
2024/03/27 03:46:17;;;;;;;3.03;2.72;;;10.90;81.50;;;;;;2094857;28;20074;-71
2024/03/27 03:47:18;;;;;;;4.97;3.15;;;10.90;81.30;;;;;;2094393;28;20033;-70
2024/03/27 03:48:18;;;;;;;4.82;3.17;;;10.90;81.20;;;;;;2095340;28;20547;-72
2024/03/27 03:49:19;;;;;;;3.97;3.47;;;10.90;81.10;;;;;;2095704;28;20181;-69
2024/03/27 03:50:20;;;;;;;4.63;3.22;;;10.90;81.00;;;;;;2093765;28;20029;-72
2024/03/27 03:51:20;;;;;;;3.95;3.15;;;10.90;80.60;;;;;;2094805;28;20421;-71
2024/03/27 03:52:21;;;;;;;4.13;2.55;;;10.90;80.60;;;;;;2092278;28;20021;-72
2024/03/27 03:53:21;;;;;;;3.53;3.15;;;10.90;80.50;;;;;;2094364;28;20492;-71
2024/03/27 03:54:22;;;;;;;5.35;3.35;;;10.90;80.70;;;;;;2095111;28;20021;-69
2024/03/27 03:55:22;;;;;;;4.65;2.75;;;10.90;80.90;;;;;;2094725;28;20021;-72
2024/03/27 03:56:24;;;;;;;3.72;2.92;;;10.90;81.20;;;;;;2094250;28;20029;-71
2024/03/27 03:57:24;;;;;;;5.72;3.20;;;10.90;81.20;;;;;;2092492;28;20391;-72
2024/03/27 03:58:25;;;;;;;5.07;2.95;;;10.90;81.20;;;;;;2092193;28;20055;-72
2024/03/27 03:59:25;;;;;;;4.45;3.00;;;10.90;81.30;;;;;;2093179;28;20029;-71
2024/03/27 04:00:26;;;;;;;4.65;3.17;;;10.90;81.10;;;;;;2095153;28;20131;-72
2024/03/27 04:01:29;;;;;;;3.17;2.88;;;10.90;80.90;;;;;;2096391;28;20100;-72
2024/03/27 04:02:30;;;;;;;3.83;3.40;;;10.90;81.10;;;;;;2093453;28;20023;-71
2024/03/27 04:03:30;;;;;;;4.15;2.85;;;10.90;81.30;;;;;;2095186;28;20025;-71
2024/03/27 04:04:31;;;;;;;4.05;3.30;;;10.80;81.40;;;;;;2094233;28;20685;-71
2024/03/27 04:05:32;;;;;;;3.53;3.00;;;10.90;81.70;;;;;;2095713;28;20051;-72
2024/03/27 04:06:33;;;;;;;5.82;3.42;;;10.80;82.30;;;;;;2095225;28;20142;-72
2024/03/27 04:07:33;;;;;;;3.95;3.05;;;10.80;82.50;;;;;;2095233;28;20040;-71
2024/03/27 04:08:34;;;;;;;4.88;2.95;;;10.80;82.70;;;;;;2095486;28;20028;-71
2024/03/27 04:09:34;;;;;;;4.13;2.88;;;10.80;82.80;;;;;;2093898;28;20370;-71
2024/03/27 04:10:42;;;;;;;4.05;2.83;;;10.80;82.70;;;;;;2094448;28;20109;-71
2024/03/27 04:11:43;;;;;;;4.75;3.03;;;10.80;82.50;;;;;;2094631;28;20427;-71
2024/03/27 04:12:43;;;;;;;4.68;3.45;;;10.80;82.40;;;;;;2093371;28;20025;-72
2024/03/27 04:13:44;;;;;;;5.00;3.30;;;10.70;82.10;;;;;;2095486;28;20036;-71
2024/03/27 04:14:44;;;;;;;5.22;3.35;;;10.70;82.00;;;;;;2093876;28;20021;-71
2024/03/27 04:15:46;;;;;;;4.47;3.13;;;10.80;82.10;;;;;;2092793;28;20096;-71
2024/03/27 04:16:46;;;;;;;5.72;3.10;;;10.70;82.30;;;;;;2094992;28;20044;-72
2024/03/27 04:17:47;;;;;;;4.38;2.97;;;10.70;82.50;;;;;;2095566;28;20480;-71
2024/03/27 04:18:47;;;;;;;4.00;3.13;;;10.70;82.80;;;;;;2093342;28;20426;-71
2024/03/27 04:19:51;;;;;;;3.85;3.03;;;10.70;83.00;;;;;;2094886;28;20150;-72
2024/03/27 04:20:52;;;;;;;4.75;4.00;;;10.70;82.90;;;;;;2093557;28;20473;-71
2024/03/27 04:21:52;;;;;;;8.98;3.65;;;10.60;82.80;;;;;;2095637;28;20851;-72
2024/03/27 04:22:53;;;;;;;4.82;3.78;;;10.60;82.50;;;;;;2096354;28;20048;-71
2024/03/27 04:23:53;;;;;;;3.33;2.97;;;10.60;82.30;;;;;;2094194;28;20017;-70
2024/03/27 04:24:54;;;;;;;3.40;2.90;;;10.60;82.40;;;;;;2093776;28;20071;-71
2024/03/27 04:25:54;;;;;;;3.55;3.08;;;10.70;82.30;;;;;;2095470;28;20040;-69
2024/03/27 04:26:55;;;;;;;4.68;3.33;;;10.60;82.30;;;;;;2095114;28;20116;-71
2024/03/27 04:27:55;;;;;;;6.22;3.20;;;10.60;82.40;;;;;;2095590;28;20025;-69
2024/03/27 04:28:56;;;;;;;4.25;3.15;;;10.60;82.30;;;;;;2096011;28;20032;-71
2024/03/27 04:29:57;;;;;;;5.93;3.17;;;10.60;82.40;;;;;;2093144;28;20740;-70
2024/03/27 04:30:57;;;;;;;6.88;3.40;;;10.60;82.30;;;;;;2095484;28;20108;-71
2024/03/27 04:31:58;;;;;;;4.65;3.25;;;10.60;82.30;;;;;;2093778;28;20032;-72
2024/03/27 04:32:58;;;;;;;5.22;3.25;;;10.60;82.30;;;;;;2094249;28;20055;-72
2024/03/27 04:33:59;;;;;;;7.38;3.63;;;10.60;82.50;;;;;;2096712;28;20400;-71
2024/03/27 04:35:00;;;;;;;4.20;3.15;;;10.60;82.70;;;;;;2095000;28;20024;-72
2024/03/27 04:36:01;;;;;;;5.53;2.90;;;10.60;82.90;;;;;;2096468;28;20048;-70
2024/03/27 04:37:02;;;;;;;3.38;2.95;;;10.60;83.00;;;;;;2095103;28;20342;-71
2024/03/27 04:38:02;;;;;;;4.82;3.05;;;10.60;83.10;;;;;;2093435;28;20043;-72
2024/03/27 04:39:03;;;;;;;5.97;3.25;;;10.60;83.10;;;;;;2093496;28;20501;-72
2024/03/27 04:40:09;;;;;;;4.63;2.75;;;10.60;83.20;;;;;;2095634;28;20063;-71
2024/03/27 04:41:11;;;;;;;5.35;3.17;;;10.60;83.10;;;;;;2093558;28;20484;-71
2024/03/27 04:42:12;;;;;;;3.45;2.90;;;10.60;83.30;;;;;;2094956;28;20016;-71
2024/03/27 04:43:13;;;;;;;5.55;3.10;;;10.50;83.30;;;;;;2094977;28;20039;-71
2024/03/27 04:44:13;;;;;;;4.05;3.42;;;10.50;83.30;;;;;;2093602;28;20112;-72
2024/03/27 04:45:14;;;;;;;4.47;2.92;;;10.50;83.50;;;;;;2096227;28;20548;-72
2024/03/27 04:46:15;;;;;;;4.57;3.13;;;10.50;83.70;;;;;;2086591;28;20035;-72
2024/03/27 04:47:15;;;;;;;3.42;2.78;;;10.50;83.80;;;;;;2087808;28;20491;-72
2024/03/27 04:48:16;;;;;;;3.22;2.90;;;10.50;83.90;;;;;;2095337;28;20021;-73
2024/03/27 04:49:16;;;;;;;4.35;3.03;;;10.50;84.00;;;;;;2094308;28;20029;-72
2024/03/27 04:50:17;;;;;;;5.75;3.05;;;10.50;84.10;;;;;;2095984;28;20036;-71
2024/03/27 04:51:18;;;;;;;3.25;2.63;;;10.40;84.20;;;;;;2093951;28;20062;-72
2024/03/27 04:52:18;;;;;;;3.92;3.03;;;10.40;84.30;;;;;;2093701;28;20036;-72
2024/03/27 04:53:19;;;;;;;3.85;2.85;;;10.40;84.60;;;;;;2093965;28;20166;-72
2024/03/27 04:54:19;;;;;;;3.40;3.10;;;10.40;84.60;;;;;;2094289;28;20027;-71
2024/03/27 04:55:20;;;;;;;4.28;3.28;;;10.40;84.70;;;;;;2092824;28;20037;-69
2024/03/27 04:56:20;;;;;;;4.55;2.83;;;10.40;84.90;;;;;;2094365;28;20059;-71
2024/03/27 04:57:21;;;;;;;4.82;3.28;;;10.30;84.90;;;;;;2092923;28;20027;-72
2024/03/27 04:58:21;;;;;;;3.17;2.58;;;10.40;85.00;;;;;;2094991;28;20021;-73
2024/03/27 04:59:22;;;;;;;4.72;3.50;;;10.30;84.90;;;;;;2093139;28;20027;-71
2024/03/27 05:00:23;;;;;;;4.28;3.00;;;10.30;85.00;;;;;;2095099;28;20028;-72
2024/03/27 05:01:23;;;;;;;5.72;3.42;;;10.30;85.00;;;;;;2095482;28;20503;-72
2024/03/27 05:02:24;;;;;;;5.80;2.90;;;10.30;85.10;;;;;;2094433;28;20115;-72
2024/03/27 05:03:25;;;;;;;6.05;3.30;;;10.30;85.30;;;;;;2095190;28;20074;-72
2024/03/27 05:04:25;;;;;;;3.42;2.42;;;10.20;85.40;;;;;;2085530;28;20021;-69
2024/03/27 05:05:26;;;;;;;5.60;2.97;;;10.20;85.50;;;;;;2084286;28;20158;-72
2024/03/27 05:06:26;;;;;;;4.00;3.42;;;10.20;85.60;;;;;;2095082;28;20032;-72
2024/03/27 05:07:27;;;;;;;3.95;2.95;;;10.20;85.70;;;;;;2092772;28;20024;-72
2024/03/27 05:08:27;;;;;;;3.67;3.25;;;10.20;85.90;;;;;;2095850;28;20029;-72
2024/03/27 05:09:30;;;;;;;6.60;3.58;;;10.20;86.10;;;;;;2093200;28;20036;-72
2024/03/27 05:10:31;;;;;;;4.72;3.20;;;10.20;86.40;;;;;;2094554;28;20072;-71
2024/03/27 05:11:31;;;;;;;4.68;3.70;;;10.20;86.60;;;;;;2087344;28;20037;-72
2024/03/27 05:12:32;;;;;;;4.78;3.60;;;10.10;86.70;;;;;;2088138;28;20051;-72
2024/03/27 05:13:33;;;;;;;5.43;3.47;;;10.10;87.00;;;;;;2095286;28;20104;-72
2024/03/27 05:14:33;;;;;;;4.78;3.30;;;10.10;87.10;;;;;;2095109;28;20031;-70
2024/03/27 05:15:34;;;;;;;4.28;3.20;;;10.10;87.10;;;;;;2094620;28;20473;-71
2024/03/27 05:16:34;;;;;;;4.55;3.53;;;10.10;87.30;;;;;;2094727;28;20033;-72
2024/03/27 05:17:35;;;;;;;3.88;3.35;;;10.00;87.40;;;;;;2093793;28;20535;-72